createdAt,value
2022-11-19T00:01:32.914Z,73.17
2022-11-19T00:04:07.955Z,72.96
2022-11-19T00:06:40.347Z,72.90
2022-11-19T00:09:14.511Z,72.70
2022-11-19T00:12:04.354Z,72.94
2022-11-19T00:14:36.645Z,73.29
2022-11-19T00:17:11.555Z,73.29
2022-11-19T00:19:43.902Z,73.49
2022-11-19T00:22:16.264Z,73.32
2022-11-19T00:24:48.417Z,73.28
2022-11-19T00:27:20.562Z,73.18
2022-11-19T00:29:55.298Z,73.68
2022-11-19T00:32:27.562Z,73.70
2022-11-19T00:35:00.001Z,73.46
2022-11-19T00:37:34.749Z,73.67
2022-11-19T00:40:08.982Z,73.61
2022-11-19T00:43:01.895Z,73.70
2022-11-19T00:45:36.258Z,73.66
2022-11-19T00:48:08.753Z,73.74
2022-11-19T00:50:40.875Z,73.47
2022-11-19T00:53:13.039Z,73.52
2022-11-19T00:55:45.182Z,73.41
2022-11-19T00:58:17.734Z,73.39
2022-11-19T01:00:51.537Z,73.55
2022-11-19T01:03:24.932Z,73.45
2022-11-19T01:05:57.133Z,73.47
2022-11-19T01:08:29.849Z,73.50
2022-11-19T01:11:09.486Z,73.46
2022-11-19T01:13:41.727Z,73.50
2022-11-19T01:16:16.068Z,73.45
2022-11-19T01:18:49.829Z,73.51
2022-11-19T01:21:23.902Z,73.45
2022-11-19T01:23:56.645Z,73.06
2022-11-19T01:26:29.759Z,73.33
2022-11-19T01:29:03.748Z,73.26
2022-11-19T01:31:36.047Z,73.51
2022-11-19T01:34:08.340Z,73.55
2022-11-19T01:36:40.432Z,73.61
2022-11-19T01:39:12.648Z,73.93
2022-11-19T01:41:44.803Z,73.96
2022-11-19T01:44:55.908Z,74.12
2022-11-19T01:47:28.501Z,73.55
2022-11-19T01:50:02.946Z,73.66
2022-11-19T01:52:35.172Z,73.45
2022-11-19T01:55:11.383Z,73.45
2022-11-19T01:57:43.993Z,73.45
2022-11-19T02:00:18.408Z,73.48
2022-11-19T02:02:50.972Z,73.99
2022-11-19T02:05:26.313Z,74.22
2022-11-19T02:08:00.035Z,74.07
2022-11-19T02:10:48.385Z,74.35
2022-11-19T02:13:31.251Z,74.22
2022-11-19T02:16:16.434Z,73.90
2022-11-19T02:18:52.656Z,74.11
2022-11-19T02:21:37.209Z,73.88
2022-11-19T02:24:41.347Z,73.83
2022-11-19T02:27:48.104Z,73.96
2022-11-19T02:30:20.973Z,74.46
2022-11-19T02:33:03.407Z,74.46
2022-11-19T02:35:47.895Z,74.56
2022-11-19T02:38:30.534Z,74.26
2022-11-19T02:41:28.324Z,74.42
2022-11-19T02:44:25.555Z,74.64
2022-11-19T02:47:00.837Z,74.67
2022-11-19T02:49:39.436Z,74.78
2022-11-19T02:52:18.093Z,74.75
2022-11-19T02:54:50.512Z,74.87
2022-11-19T02:57:27.867Z,75.00
2022-11-19T03:00:23.778Z,75.43
2022-11-19T03:03:27.374Z,75.69
2022-11-19T03:06:03.485Z,75.72
2022-11-19T03:08:36.474Z,75.65
2022-11-19T03:11:17.393Z,75.58
2022-11-19T03:14:14.780Z,75.81
2022-11-19T03:16:55.757Z,75.90
2022-11-19T03:19:38.563Z,76.28
2022-11-19T03:22:17.529Z,76.94
2022-11-19T03:24:57.768Z,77.44
2022-11-19T03:27:37.082Z,77.20
2022-11-19T03:30:13.423Z,77.42
2022-11-19T03:32:48.869Z,77.53
2022-11-19T03:35:32.846Z,77.89
2022-11-19T03:38:11.761Z,77.99
2022-11-19T03:40:47.865Z,77.95
2022-11-19T03:43:25.496Z,78.15
2022-11-19T03:46:00.708Z,78.32
2022-11-19T03:48:34.592Z,78.31
2022-11-19T03:51:15.632Z,78.57
2022-11-19T03:53:49.847Z,78.20
2022-11-19T03:56:25.526Z,78.24
2022-11-19T03:59:00.158Z,78.34
2022-11-19T04:01:33.724Z,78.26
2022-11-19T04:04:24.964Z,78.45
2022-11-19T04:06:57.176Z,78.41
2022-11-19T04:09:29.548Z,78.39
2022-11-19T04:12:01.883Z,78.47
2022-11-19T04:14:37.107Z,78.27
2022-11-19T04:17:09.532Z,78.01
2022-11-19T04:19:41.658Z,77.95
2022-11-19T04:22:13.993Z,77.56
2022-11-19T04:24:46.078Z,77.61
2022-11-19T04:27:18.283Z,77.38
2022-11-19T04:29:53.211Z,77.38
2022-11-19T04:32:25.365Z,77.62
2022-11-19T04:35:03.160Z,77.56
2022-11-19T04:37:35.705Z,77.86
2022-11-19T04:40:25.237Z,77.89
2022-11-19T04:42:57.351Z,78.05
2022-11-19T04:45:29.751Z,78.33
2022-11-19T04:48:01.895Z,78.28
2022-11-19T04:50:36.962Z,78.35
2022-11-19T04:53:10.509Z,78.37
2022-11-19T04:55:45.393Z,78.37
2022-11-19T04:58:17.887Z,78.20
2022-11-19T05:00:52.960Z,78.47
2022-11-19T05:03:25.199Z,77.97
2022-11-19T05:05:57.708Z,78.00
2022-11-19T05:08:30.034Z,78.11
2022-11-19T05:11:02.145Z,77.58
2022-11-19T05:13:34.488Z,77.52
2022-11-19T05:16:07.621Z,77.49
2022-11-19T05:18:40.066Z,77.35
2022-11-19T05:21:12.225Z,77.07
2022-11-19T05:23:47.415Z,77.09
2022-11-19T05:26:45.608Z,77.04
2022-11-19T05:32:44.300Z,76.85
2022-11-19T05:35:28.074Z,77.12
2022-11-19T05:38:00.606Z,77.08
2022-11-19T05:40:32.842Z,77.20
2022-11-19T05:43:09.574Z,77.40
2022-11-19T05:45:55.354Z,77.40
2022-11-19T05:48:27.526Z,77.37
2022-11-19T05:51:01.515Z,77.58
2022-11-19T05:53:47.612Z,77.63
2022-11-19T05:56:19.855Z,77.71
2022-11-19T05:58:51.965Z,77.76
2022-11-19T06:01:28.945Z,77.69
2022-11-19T06:04:02.436Z,77.63
2022-11-19T06:06:34.606Z,77.61
2022-11-19T06:09:07.016Z,77.54
2022-11-19T06:11:50.186Z,77.46
2022-11-19T06:14:24.218Z,77.01
2022-11-19T06:17:00.875Z,77.10
2022-11-19T06:19:33.493Z,77.18
2022-11-19T06:22:06.202Z,77.13
2022-11-19T06:24:38.300Z,77.18
2022-11-19T06:27:10.466Z,77.28
2022-11-19T06:29:43.581Z,77.29
2022-11-19T06:32:15.821Z,77.31
2022-11-19T06:34:47.990Z,77.16
2022-11-19T06:37:20.244Z,77.20
2022-11-19T06:39:52.447Z,77.16
2022-11-19T06:42:37.114Z,77.25
2022-11-19T06:45:15.333Z,76.95
2022-11-19T06:47:50.138Z,76.94
2022-11-19T06:50:28.585Z,76.70
2022-11-19T06:53:00.763Z,76.71
2022-11-19T06:55:35.321Z,76.50
2022-11-19T06:58:09.139Z,76.37
2022-11-19T07:00:41.282Z,76.29
2022-11-19T07:03:13.739Z,76.40
2022-11-19T07:05:46.122Z,76.56
2022-11-19T07:08:19.110Z,76.46
2022-11-19T07:10:51.924Z,76.33
2022-11-19T07:13:24.056Z,76.39
2022-11-19T07:15:56.787Z,75.89
2022-11-19T07:18:29.054Z,75.94
2022-11-19T07:21:01.123Z,75.85
2022-11-19T07:23:33.270Z,75.62
2022-11-19T07:26:05.490Z,75.53
2022-11-19T07:28:38.145Z,75.38
2022-11-19T07:31:11.040Z,75.73
2022-11-19T07:33:43.415Z,75.87
2022-11-19T07:36:18.543Z,75.72
2022-11-19T07:38:52.464Z,75.90
2022-11-19T07:41:42.472Z,75.81
2022-11-19T07:44:14.542Z,75.92
2022-11-19T07:46:47.347Z,75.90
2022-11-19T07:49:22.045Z,75.94
2022-11-19T07:51:54.348Z,75.75
2022-11-19T07:54:26.448Z,75.65
2022-11-19T07:56:58.604Z,75.41
2022-11-19T07:59:30.828Z,75.29
2022-11-19T08:02:03.256Z,75.20
2022-11-19T08:04:56.985Z,75.22
2022-11-19T08:07:38.058Z,75.32
2022-11-19T08:10:12.046Z,75.18
2022-11-19T08:13:03.586Z,75.21
2022-11-19T08:15:36.909Z,75.27
2022-11-19T08:18:13.849Z,75.16
2022-11-19T08:20:48.463Z,75.14
2022-11-19T08:23:20.720Z,75.32
2022-11-19T08:25:53.069Z,75.39
2022-11-19T08:28:41.590Z,75.30
2022-11-19T08:31:13.979Z,75.25
2022-11-19T08:33:46.349Z,75.22
2022-11-19T08:36:18.605Z,75.06
2022-11-19T08:38:54.030Z,74.89
2022-11-19T08:41:53.485Z,74.92
2022-11-19T08:44:25.700Z,75.06
2022-11-19T08:46:58.507Z,74.93
2022-11-19T08:49:30.550Z,75.02
2022-11-19T08:52:02.620Z,75.12
2022-11-19T08:54:34.753Z,75.05
2022-11-19T08:57:09.631Z,74.99
2022-11-19T08:59:41.704Z,75.08
2022-11-19T09:02:14.441Z,75.03
2022-11-19T09:04:46.865Z,74.99
2022-11-19T09:07:19.399Z,75.02
2022-11-19T09:09:51.685Z,74.97
2022-11-19T09:12:23.802Z,75.02
2022-11-19T09:14:55.902Z,75.09
2022-11-19T09:17:28.168Z,75.31
2022-11-19T09:20:00.362Z,75.44
2022-11-19T09:22:36.305Z,75.71
2022-11-19T09:25:13.069Z,75.89
2022-11-19T09:27:45.165Z,75.75
2022-11-19T09:30:18.095Z,75.91
2022-11-19T09:32:50.244Z,75.76
2022-11-19T09:35:24.039Z,75.92
2022-11-19T09:37:56.267Z,76.00
2022-11-19T09:40:28.350Z,75.70
2022-11-19T09:43:14.966Z,75.81
2022-11-19T09:45:58.229Z,76.02
2022-11-19T09:48:37.011Z,76.09
2022-11-19T09:51:14.209Z,76.03
2022-11-19T09:53:52.671Z,75.89
2022-11-19T09:56:31.995Z,75.65
2022-11-19T09:59:09.109Z,75.63
2022-11-19T10:01:41.419Z,75.47
2022-11-19T10:04:14.372Z,75.50
2022-11-19T10:06:56.537Z,75.25
2022-11-19T10:09:51.079Z,74.75
2022-11-19T10:12:37.384Z,74.72
2022-11-19T10:26:40.968Z,73.56
2022-11-19T10:29:36.112Z,72.66
2022-11-19T10:32:27.244Z,72.48
2022-11-19T10:35:04.404Z,72.08
2022-11-19T10:37:40.380Z,71.93
2022-11-19T10:40:16.661Z,71.60
2022-11-19T10:42:53.790Z,71.73
2022-11-19T10:45:30.179Z,71.71
2022-11-19T10:48:09.591Z,71.31
2022-11-19T10:50:42.635Z,71.12
2022-11-19T10:53:22.463Z,70.75
2022-11-19T10:55:58.780Z,71.00
2022-11-19T10:58:35.096Z,71.34
2022-11-19T11:01:17.403Z,71.03
2022-11-19T11:03:56.226Z,70.86
2022-11-19T11:06:28.531Z,71.00
2022-11-19T11:09:00.639Z,70.83
2022-11-19T11:11:48.875Z,70.59
2022-11-19T11:14:56.876Z,70.89
2022-11-19T11:17:32.209Z,70.88
2022-11-19T11:20:06.827Z,71.11
2022-11-19T11:22:39.723Z,70.99
2022-11-19T11:25:23.392Z,71.14
2022-11-19T11:28:08.834Z,71.03
2022-11-19T11:30:52.509Z,70.92
2022-11-19T11:33:37.770Z,70.47
2022-11-19T11:36:15.863Z,70.69
2022-11-19T11:38:50.101Z,70.32
2022-11-19T11:44:23.519Z,70.21
2022-11-19T11:46:58.191Z,69.84
2022-11-19T11:49:35.033Z,70.17
2022-11-19T11:52:19.902Z,70.25
2022-11-19T11:55:01.186Z,70.16
2022-11-19T11:57:37.206Z,70.14
2022-11-19T12:00:33.397Z,69.86
2022-11-19T12:03:07.901Z,70.01
2022-11-19T12:05:58.821Z,69.87
2022-11-19T12:08:50.103Z,69.37
2022-11-19T12:11:49.816Z,68.87
2022-11-19T12:14:26.772Z,69.45
2022-11-19T12:17:31.070Z,69.93
2022-11-19T12:20:21.498Z,70.16
2022-11-19T12:23:08.227Z,70.59
2022-11-19T12:25:48.840Z,71.40
2022-11-19T12:28:47.332Z,72.11
2022-11-19T12:31:33.688Z,73.28
2022-11-19T12:34:26.135Z,73.73
2022-11-19T12:37:09.250Z,73.91
2022-11-19T12:39:53.260Z,73.90
2022-11-19T12:42:42.952Z,74.29
2022-11-19T12:45:26.954Z,74.42
2022-11-19T12:48:23.891Z,74.13
2022-11-19T12:51:02.032Z,74.50
2022-11-19T12:53:53.033Z,74.54
2022-11-19T12:56:36.845Z,74.71
2022-11-19T12:59:23.184Z,75.03
2022-11-19T13:02:01.002Z,74.36
2022-11-19T13:04:40.562Z,74.50
2022-11-19T13:07:17.693Z,74.46
2022-11-19T13:09:54.434Z,74.59
2022-11-19T13:12:37.552Z,74.64
2022-11-19T13:15:18.503Z,74.91
2022-11-19T13:17:55.399Z,75.16
2022-11-19T13:20:35.094Z,75.38
2022-11-19T13:23:09.250Z,75.71
2022-11-19T13:25:45.365Z,76.00
2022-11-19T13:28:25.006Z,76.07
2022-11-19T13:31:04.104Z,75.91
2022-11-19T13:33:44.735Z,75.95
2022-11-19T13:36:26.332Z,76.32
2022-11-19T13:39:05.882Z,76.48
2022-11-19T13:42:02.473Z,76.44
2022-11-19T13:44:41.609Z,76.28
2022-11-19T13:47:21.344Z,76.20
2022-11-19T13:49:58.012Z,76.56
2022-11-19T13:52:35.269Z,76.24
2022-11-19T13:55:31.687Z,76.36
2022-11-19T13:58:20.058Z,76.42
2022-11-19T14:01:15.813Z,76.53
2022-11-19T14:07:35.709Z,76.56
2022-11-19T14:10:17.419Z,76.85
2022-11-19T14:13:15.845Z,76.80
2022-11-19T14:16:16.426Z,77.01
2022-11-19T14:19:08.554Z,77.18
2022-11-19T14:22:24.202Z,77.17
2022-11-19T14:25:31.591Z,77.06
2022-11-19T14:28:43.476Z,76.97
2022-11-19T14:31:39.190Z,76.79
2022-11-19T14:34:28.696Z,76.75
2022-11-19T14:37:04.571Z,76.63
2022-11-19T14:39:45.017Z,76.61
2022-11-19T14:42:19.151Z,76.63
2022-11-19T14:45:29.369Z,76.41
2022-11-19T14:48:13.903Z,76.39
2022-11-19T14:51:19.079Z,76.37
2022-11-19T14:53:54.125Z,76.30
2022-11-19T14:56:33.695Z,76.00
2022-11-19T14:59:22.372Z,75.76
2022-11-19T15:02:41.113Z,75.84
2022-11-19T15:05:29.205Z,75.95
2022-11-19T15:08:31.104Z,76.21
2022-11-19T15:11:11.695Z,76.21
2022-11-19T15:13:44.818Z,76.57
2022-11-19T15:16:21.054Z,76.75
2022-11-19T15:19:30.896Z,77.02
2022-11-19T15:22:29.313Z,77.32
2022-11-19T15:25:24.266Z,77.74
2022-11-19T15:28:05.531Z,77.96
2022-11-19T15:31:04.874Z,77.93
2022-11-19T15:33:59.028Z,78.09
2022-11-19T15:36:34.801Z,78.28
2022-11-19T15:39:16.292Z,78.33
2022-11-19T15:42:31.915Z,78.51
2022-11-19T15:45:13.500Z,78.70
2022-11-19T15:47:50.146Z,78.87
2022-11-19T15:50:25.001Z,78.87
2022-11-19T15:53:15.307Z,78.92
2022-11-19T15:55:56.077Z,78.76
2022-11-19T15:58:35.612Z,79.01
2022-11-19T16:01:09.881Z,79.08
2022-11-19T16:03:42.636Z,79.10
2022-11-19T16:06:21.108Z,79.17
2022-11-19T16:08:56.940Z,79.32
2022-11-19T16:11:50.998Z,79.51
2022-11-19T16:14:44.052Z,79.68
2022-11-19T16:17:39.766Z,79.35
2022-11-19T16:20:23.897Z,79.46
2022-11-19T16:23:03.925Z,79.72
2022-11-19T16:25:38.816Z,79.67
2022-11-19T16:28:15.411Z,79.55
2022-11-19T16:30:52.095Z,79.53
2022-11-19T16:33:29.506Z,79.56
2022-11-19T16:36:15.846Z,79.63
2022-11-19T16:38:49.897Z,79.64
2022-11-19T16:41:42.149Z,79.67
2022-11-19T16:44:18.489Z,79.62
2022-11-19T16:46:51.525Z,79.62
2022-11-19T16:49:34.227Z,79.47
2022-11-19T16:52:07.785Z,79.50
2022-11-19T16:54:49.740Z,79.46
2022-11-19T16:57:24.311Z,79.52
2022-11-19T17:00:01.196Z,79.61
2022-11-19T17:02:39.061Z,79.43
2022-11-19T17:05:14.442Z,79.34
2022-11-19T17:07:50.837Z,79.38
2022-11-19T17:10:31.639Z,79.41
2022-11-19T17:13:05.920Z,79.58
2022-11-19T17:15:42.538Z,79.71
2022-11-19T17:18:20.823Z,79.80
2022-11-19T17:20:57.781Z,79.84
2022-11-19T17:23:32.229Z,79.95
2022-11-19T17:26:07.817Z,80.04
2022-11-19T17:28:47.349Z,80.00
2022-11-19T17:31:22.933Z,80.02
2022-11-19T17:33:57.953Z,80.07
2022-11-19T17:36:33.197Z,80.29
2022-11-19T17:39:09.819Z,80.31
2022-11-19T17:42:01.602Z,80.26
2022-11-19T17:44:39.374Z,80.24
2022-11-19T17:47:22.199Z,80.36
2022-11-19T17:49:55.112Z,80.20
2022-11-19T17:52:31.524Z,80.25
2022-11-19T17:55:17.625Z,80.23
2022-11-19T17:57:52.121Z,79.83
2022-11-19T18:00:24.353Z,80.29
2022-11-19T18:03:01.768Z,80.35
2022-11-19T18:05:38.067Z,80.42
2022-11-19T18:08:10.255Z,80.53
2022-11-19T18:10:48.100Z,80.53
2022-11-19T18:13:25.134Z,80.47
2022-11-19T18:15:57.773Z,80.38
2022-11-19T18:18:30.015Z,80.34
2022-11-19T18:21:02.488Z,80.55
2022-11-19T18:23:34.749Z,80.34
2022-11-19T18:26:12.234Z,80.40
2022-11-19T18:28:48.826Z,80.32
2022-11-19T18:31:26.193Z,80.51
2022-11-19T18:33:58.924Z,80.37
2022-11-19T18:36:31.292Z,80.44
2022-11-19T18:39:03.495Z,80.26
2022-11-19T18:41:35.757Z,80.39
2022-11-19T18:44:29.984Z,80.16
2022-11-19T18:47:03.805Z,80.13
2022-11-19T18:49:39.606Z,80.27
2022-11-19T18:52:15.673Z,80.13
2022-11-19T18:54:48.056Z,80.23
2022-11-19T18:57:20.437Z,80.02
2022-11-19T18:59:52.896Z,79.97
2022-11-19T19:02:28.048Z,80.09
2022-11-19T19:05:00.315Z,80.15
2022-11-19T19:07:32.797Z,80.02
2022-11-19T19:10:05.524Z,79.86
2022-11-19T19:12:37.700Z,79.66
2022-11-19T19:15:11.732Z,79.60
2022-11-19T19:17:43.967Z,79.50
2022-11-19T19:20:17.380Z,79.31
2022-11-19T19:22:49.804Z,79.15
2022-11-19T19:25:21.960Z,79.19
2022-11-19T19:27:54.116Z,79.09
2022-11-19T19:30:31.703Z,78.95
2022-11-19T19:33:06.868Z,78.97
2022-11-19T19:35:41.560Z,78.95
2022-11-19T19:38:16.319Z,78.75
2022-11-19T19:40:48.902Z,78.84
2022-11-19T19:43:21.501Z,78.45
2022-11-19T19:45:53.699Z,78.72
2022-11-19T19:48:25.897Z,78.42
2022-11-19T19:50:58.491Z,78.63
2022-11-19T19:53:31.227Z,78.47
2022-11-19T19:56:09.307Z,78.37
2022-11-19T19:58:45.332Z,78.46
2022-11-19T20:01:22.589Z,78.63
2022-11-19T20:04:03.751Z,78.17
2022-11-19T20:06:52.477Z,77.99
2022-11-19T20:09:41.322Z,78.31
2022-11-19T20:12:13.748Z,78.05
2022-11-19T20:14:46.408Z,78.25
2022-11-19T20:17:19.315Z,78.21
2022-11-19T20:19:51.709Z,78.19
2022-11-19T20:22:24.314Z,78.25
2022-11-19T20:24:57.057Z,77.99
2022-11-19T20:27:29.521Z,77.78
2022-11-19T20:30:05.918Z,77.96
2022-11-19T20:32:38.308Z,77.75
2022-11-19T20:35:11.295Z,77.80
2022-11-19T20:37:43.925Z,77.70
2022-11-19T20:40:18.133Z,77.68
2022-11-19T20:43:07.917Z,77.79
2022-11-19T20:45:40.218Z,77.63
2022-11-19T20:48:13.398Z,77.67
2022-11-19T20:50:45.613Z,77.68
2022-11-19T20:53:18.000Z,77.45
2022-11-19T20:56:05.067Z,77.21
2022-11-19T20:58:38.049Z,77.15
2022-11-19T21:01:11.706Z,77.32
2022-11-19T21:03:44.081Z,77.36
2022-11-19T21:06:16.378Z,77.24
2022-11-19T21:08:48.971Z,77.38
2022-11-19T21:11:21.459Z,77.37
2022-11-19T21:13:53.926Z,77.17
2022-11-19T21:16:29.008Z,76.92
2022-11-19T21:19:01.692Z,76.98
2022-11-19T21:21:34.685Z,77.25
2022-11-19T21:24:10.380Z,77.30
2022-11-19T21:26:42.647Z,77.21
2022-11-19T21:29:15.327Z,76.91
2022-11-19T21:31:49.175Z,77.09
2022-11-19T21:34:22.337Z,77.14
2022-11-19T21:36:55.473Z,77.14
2022-11-19T21:39:30.237Z,77.11
2022-11-19T21:42:02.406Z,77.09
2022-11-19T21:44:34.604Z,77.20
2022-11-19T21:47:08.003Z,77.17
2022-11-19T21:49:40.333Z,77.28
2022-11-19T21:52:12.686Z,77.08
2022-11-19T21:54:44.781Z,77.15
2022-11-19T21:57:17.123Z,77.25
2022-11-19T21:59:49.589Z,77.15
2022-11-19T22:02:21.827Z,77.10
2022-11-19T22:04:54.631Z,77.35
2022-11-19T22:07:26.812Z,77.19
2022-11-19T22:09:58.990Z,77.43
2022-11-19T22:12:31.821Z,77.27
2022-11-19T22:15:04.522Z,77.28
2022-11-19T22:17:37.138Z,77.16
2022-11-19T22:20:11.072Z,77.11
2022-11-19T22:22:45.232Z,77.21
2022-11-19T22:25:17.745Z,77.28
2022-11-19T22:27:49.904Z,77.20
2022-11-19T22:30:22.194Z,77.17
2022-11-19T22:32:56.680Z,77.15
2022-11-19T22:35:29.017Z,77.12
2022-11-19T22:38:01.220Z,77.34
2022-11-19T22:40:33.710Z,77.54
2022-11-19T22:43:05.850Z,77.48
2022-11-19T22:45:38.335Z,77.60
2022-11-19T22:48:11.291Z,77.76
2022-11-19T22:50:44.180Z,77.59
2022-11-19T22:53:17.375Z,77.84
2022-11-19T22:55:49.513Z,77.60
2022-11-19T22:58:21.991Z,77.87
2022-11-19T23:00:54.613Z,77.96
2022-11-19T23:03:26.853Z,78.11
2022-11-19T23:05:59.282Z,78.22
2022-11-19T23:08:31.475Z,77.95
2022-11-19T23:11:05.717Z,78.04
2022-11-19T23:13:42.629Z,78.18
2022-11-19T23:16:16.653Z,78.13
2022-11-19T23:18:54.159Z,78.60
2022-11-19T23:21:28.548Z,78.37
2022-11-19T23:24:01.239Z,78.11
2022-11-19T23:26:36.466Z,78.35
2022-11-19T23:29:09.321Z,78.28
2022-11-19T23:31:45.856Z,78.56
2022-11-19T23:34:20.472Z,78.50
2022-11-19T23:36:54.007Z,78.58
2022-11-19T23:39:26.218Z,78.78
2022-11-19T23:41:58.348Z,78.90
2022-11-19T23:44:30.722Z,78.68
2022-11-19T23:47:04.522Z,79.04
2022-11-19T23:49:36.785Z,78.91
2022-11-19T23:52:09.241Z,79.25
2022-11-19T23:54:41.412Z,79.16
2022-11-19T23:57:13.516Z,79.21
2022-11-19T23:59:45.647Z,79.11
